Hlavní strana
METAR-TAF:

METAR-TAF

Letiště :

Stockholm-Skavsta, Švédsko

zeměpisná šířka: 58-47N, zeměpisná délka: 016-55E, výška: 43 m

Aktuální stav počasí

Zpráva byla vytvořena před 26 minutami, v 13:20 UTC
Západoseverozápadní vítr 14 kt
Teplota 9°C
Vlhkost vzduchu 46%
Tlak 1024 hPa
Viditelnost 10 km a více
Žádná oblačnost pod 1500 m, nevyskytují se cumulonimby.

METAR: ESKN 011320Z 30014KT CAVOK 09/M02 Q1024 R26/09//95

Čas: 14:46 (13:46 UTC)

Předpověď počasí

Zpráva byla vytvořena před 2 hodinami a 16 minutami, v 11:30 UTC
Předpověď platná od 01 v 12 UTC do 02 v 12 UTC
Západní vítr 10 kt
Viditelnost 10 km a více
Žádná oblačnost pod 1500 m, nevyskytují se cumulonimby.

TAF: ESKN 011130Z 0112/0212 27010KT CAVOK

Stav a předpovědi počasí z více než 4 000 letišť (zprávy METAR a TAF).

Červené a žluté tečky na mapě představují dostupné meteorologické stanice.

Když kurzor umístíte na tečku, zobrazí se název stanice.

Pak kliknutím zobrazíte stav a předpověď počasí.

Chcete-li změnit mapu, kliknutím na zelené tlačítko se znaménkem +mapu přiblížíte, kliknutím na zelené tlačítko se znaménkem – mapu oddálíte a kliknutím na zelené šipky přejdete na sousední mapy.


METAR-TAF: